sensor_id;sensor_type;location;lat;lon;timestamp;temperature;humidity
20670;DHT22;10494;50.868;4.180;2022-11-15T00:00:07;11.90;99.90
20670;DHT22;10494;50.868;4.180;2022-11-15T00:02:33;11.90;99.90
20670;DHT22;10494;50.868;4.180;2022-11-15T00:04:58;11.90;99.90
20670;DHT22;10494;50.868;4.180;2022-11-15T00:07:24;12.00;99.90
20670;DHT22;10494;50.868;4.180;2022-11-15T00:09:49;12.00;99.90
20670;DHT22;10494;50.868;4.180;2022-11-15T00:12:15;12.00;99.90
20670;DHT22;10494;50.868;4.180;2022-11-15T00:14:41;12.00;99.90
20670;DHT22;10494;50.868;4.180;2022-11-15T00:17:06;12.00;99.90
20670;DHT22;10494;50.868;4.180;2022-11-15T00:19:32;12.00;99.90
20670;DHT22;10494;50.868;4.180;2022-11-15T00:21:58;12.00;99.90
20670;DHT22;10494;50.868;4.180;2022-11-15T00:24:24;12.10;99.90
20670;DHT22;10494;50.868;4.180;2022-11-15T00:26:49;12.10;99.90
20670;DHT22;10494;50.868;4.180;2022-11-15T00:29:15;12.10;99.90
20670;DHT22;10494;50.868;4.180;2022-11-15T00:31:40;12.20;99.90
20670;DHT22;10494;50.868;4.180;2022-11-15T00:34:06;12.20;99.90
20670;DHT22;10494;50.868;4.180;2022-11-15T00:36:33;12.20;99.90
20670;DHT22;10494;50.868;4.180;2022-11-15T00:38:59;12.30;99.90
20670;DHT22;10494;50.868;4.180;2022-11-15T00:41:25;12.30;99.90
20670;DHT22;10494;50.868;4.180;2022-11-15T00:43:51;12.30;99.90
20670;DHT22;10494;50.868;4.180;2022-11-15T00:46:16;12.40;99.90
20670;DHT22;10494;50.868;4.180;2022-11-15T00:48:42;12.40;99.90
20670;DHT22;10494;50.868;4.180;2022-11-15T00:51:07;12.40;99.90
20670;DHT22;10494;50.868;4.180;2022-11-15T00:53:33;12.40;99.90
20670;DHT22;10494;50.868;4.180;2022-11-15T00:55:59;12.40;99.90
20670;DHT22;10494;50.868;4.180;2022-11-15T00:58:24;12.30;99.90
20670;DHT22;10494;50.868;4.180;2022-11-15T01:00:50;12.40;99.90
20670;DHT22;10494;50.868;4.180;2022-11-15T01:03:16;12.40;99.90
20670;DHT22;10494;50.868;4.180;2022-11-15T01:05:41;12.40;99.90
20670;DHT22;10494;50.868;4.180;2022-11-15T01:08:12;12.30;99.90
20670;DHT22;10494;50.868;4.180;2022-11-15T01:10:38;12.30;99.90
20670;DHT22;10494;50.868;4.180;2022-11-15T01:13:03;12.40;99.90
20670;DHT22;10494;50.868;4.180;2022-11-15T01:15:29;12.40;99.90
20670;DHT22;10494;50.868;4.180;2022-11-15T01:17:54;12.40;99.90
20670;DHT22;10494;50.868;4.180;2022-11-15T01:20:20;12.40;99.90
20670;DHT22;10494;50.868;4.180;2022-11-15T01:22:45;12.40;99.90
20670;DHT22;10494;50.868;4.180;2022-11-15T01:25:11;12.40;99.90
20670;DHT22;10494;50.868;4.180;2022-11-15T01:27:37;12.50;99.90
20670;DHT22;10494;50.868;4.180;2022-11-15T01:30:02;12.50;99.90
20670;DHT22;10494;50.868;4.180;2022-11-15T01:32:29;12.50;99.90
20670;DHT22;10494;50.868;4.180;2022-11-15T01:34:54;12.40;99.90
20670;DHT22;10494;50.868;4.180;2022-11-15T01:37:20;12.50;99.90
20670;DHT22;10494;50.868;4.180;2022-11-15T01:39:45;12.40;99.90
20670;DHT22;10494;50.868;4.180;2022-11-15T01:42:14;12.40;99.90
20670;DHT22;10494;50.868;4.180;2022-11-15T01:44:47;12.40;99.90
20670;DHT22;10494;50.868;4.180;2022-11-15T01:47:25;12.40;99.90
20670;DHT22;10494;50.868;4.180;2022-11-15T01:49:55;12.40;99.90
20670;DHT22;10494;50.868;4.180;2022-11-15T01:52:25;12.30;99.90
20670;DHT22;10494;50.868;4.180;2022-11-15T01:55:02;12.30;99.90
20670;DHT22;10494;50.868;4.180;2022-11-15T01:57:28;12.30;99.90
20670;DHT22;10494;50.868;4.180;2022-11-15T01:59:56;12.20;99.90
20670;DHT22;10494;50.868;4.180;2022-11-15T02:02:22;12.20;99.90
20670;DHT22;10494;50.868;4.180;2022-11-15T02:04:48;12.20;99.90
20670;DHT22;10494;50.868;4.180;2022-11-15T02:07:17;12.20;99.90
20670;DHT22;10494;50.868;4.180;2022-11-15T02:09:44;12.20;99.90
20670;DHT22;10494;50.868;4.180;2022-11-15T02:12:10;12.20;99.90
20670;DHT22;10494;50.868;4.180;2022-11-15T02:14:43;12.20;99.90
20670;DHT22;10494;50.868;4.180;2022-11-15T02:17:26;12.20;99.90
20670;DHT22;10494;50.868;4.180;2022-11-15T02:23:13;12.20;99.90
20670;DHT22;10494;50.868;4.180;2022-11-15T02:31:13;12.30;99.90
20670;DHT22;10494;50.868;4.180;2022-11-15T02:36:21;12.30;99.90
20670;DHT22;10494;50.868;4.180;2022-11-15T02:39:57;12.20;99.90
20670;DHT22;10494;50.868;4.180;2022-11-15T02:41:57;12.30;99.90
20670;DHT22;10494;50.868;4.180;2022-11-15T02:44:45;12.30;99.90
20670;DHT22;10494;50.868;4.180;2022-11-15T02:47:14;12.30;99.90
20670;DHT22;10494;50.868;4.180;2022-11-15T02:52:09;12.30;99.90
20670;DHT22;10494;50.868;4.180;2022-11-15T02:54:35;12.30;99.90
20670;DHT22;10494;50.868;4.180;2022-11-15T02:57:13;12.30;99.90
20670;DHT22;10494;50.868;4.180;2022-11-15T03:00:12;12.40;99.90
20670;DHT22;10494;50.868;4.180;2022-11-15T03:02:50;12.30;99.90
20670;DHT22;10494;50.868;4.180;2022-11-15T03:10:42;12.30;99.90
20670;DHT22;10494;50.868;4.180;2022-11-15T03:18:42;12.10;99.90
20670;DHT22;10494;50.868;4.180;2022-11-15T03:21:10;12.10;99.90
20670;DHT22;10494;50.868;4.180;2022-11-15T03:23:38;12.10;99.90
20670;DHT22;10494;50.868;4.180;2022-11-15T03:26:07;12.10;99.90
20670;DHT22;10494;50.868;4.180;2022-11-15T03:28:40;12.10;99.90
20670;DHT22;10494;50.868;4.180;2022-11-15T03:31:06;12.00;99.90
20670;DHT22;10494;50.868;4.180;2022-11-15T03:33:55;12.00;99.90
20670;DHT22;10494;50.868;4.180;2022-11-15T03:36:22;12.00;99.90
20670;DHT22;10494;50.868;4.180;2022-11-15T03:38:48;12.00;99.90
20670;DHT22;10494;50.868;4.180;2022-11-15T03:41:39;11.90;99.90
20670;DHT22;10494;50.868;4.180;2022-11-15T03:44:34;11.90;99.90
20670;DHT22;10494;50.868;4.180;2022-11-15T03:48:07;12.00;99.90
20670;DHT22;10494;50.868;4.180;2022-11-15T03:50:17;12.00;99.90
20670;DHT22;10494;50.868;4.180;2022-11-15T03:52:46;12.00;99.90
20670;DHT22;10494;50.868;4.180;2022-11-15T03:55:15;12.00;99.90
20670;DHT22;10494;50.868;4.180;2022-11-15T03:57:41;12.00;99.90
20670;DHT22;10494;50.868;4.180;2022-11-15T04:00:11;12.00;99.90
20670;DHT22;10494;50.868;4.180;2022-11-15T04:02:38;12.00;99.90
20670;DHT22;10494;50.868;4.180;2022-11-15T04:05:04;11.90;99.90
20670;DHT22;10494;50.868;4.180;2022-11-15T04:07:30;11.80;99.90
20670;DHT22;10494;50.868;4.180;2022-11-15T04:09:55;11.80;99.90
20670;DHT22;10494;50.868;4.180;2022-11-15T04:12:37;11.90;99.90
20670;DHT22;10494;50.868;4.180;2022-11-15T04:15:08;11.80;99.90
20670;DHT22;10494;50.868;4.180;2022-11-15T04:17:36;11.80;99.90
20670;DHT22;10494;50.868;4.180;2022-11-15T04:20:13;11.80;99.90
20670;DHT22;10494;50.868;4.180;2022-11-15T04:22:59;11.70;99.90
20670;DHT22;10494;50.868;4.180;2022-11-15T04:25:44;11.70;99.90
20670;DHT22;10494;50.868;4.180;2022-11-15T04:28:11;11.70;99.90
20670;DHT22;10494;50.868;4.180;2022-11-15T04:30:36;11.60;99.90
20670;DHT22;10494;50.868;4.180;2022-11-15T04:33:02;11.60;99.90
20670;DHT22;10494;50.868;4.180;2022-11-15T04:35:29;11.50;99.90
20670;DHT22;10494;50.868;4.180;2022-11-15T04:37:55;11.40;99.90
20670;DHT22;10494;50.868;4.180;2022-11-15T04:40:21;11.40;99.90
20670;DHT22;10494;50.868;4.180;2022-11-15T04:42:47;11.40;99.90
20670;DHT22;10494;50.868;4.180;2022-11-15T04:45:13;11.40;99.90
20670;DHT22;10494;50.868;4.180;2022-11-15T04:47:38;11.30;99.90
20670;DHT22;10494;50.868;4.180;2022-11-15T04:50:05;11.30;99.90
20670;DHT22;10494;50.868;4.180;2022-11-15T04:52:31;11.20;99.90
20670;DHT22;10494;50.868;4.180;2022-11-15T04:54:57;11.20;99.90
20670;DHT22;10494;50.868;4.180;2022-11-15T04:57:22;11.20;99.90
20670;DHT22;10494;50.868;4.180;2022-11-15T04:59:48;11.20;99.90
20670;DHT22;10494;50.868;4.180;2022-11-15T05:02:14;11.20;99.90
20670;DHT22;10494;50.868;4.180;2022-11-15T05:04:39;11.10;99.90
20670;DHT22;10494;50.868;4.180;2022-11-15T05:07:05;11.10;99.90
20670;DHT22;10494;50.868;4.180;2022-11-15T05:09:31;11.00;99.90
20670;DHT22;10494;50.868;4.180;2022-11-15T05:11:56;11.00;99.90
20670;DHT22;10494;50.868;4.180;2022-11-15T05:14:22;10.90;99.90
20670;DHT22;10494;50.868;4.180;2022-11-15T05:16:47;10.80;99.90
20670;DHT22;10494;50.868;4.180;2022-11-15T05:19:13;10.70;99.90
20670;DHT22;10494;50.868;4.180;2022-11-15T05:21:39;10.60;99.90
20670;DHT22;10494;50.868;4.180;2022-11-15T05:24:05;10.50;99.90
20670;DHT22;10494;50.868;4.180;2022-11-15T05:26:31;10.50;99.90
20670;DHT22;10494;50.868;4.180;2022-11-15T05:28:58;10.50;99.90
20670;DHT22;10494;50.868;4.180;2022-11-15T05:31:24;10.50;99.90
20670;DHT22;10494;50.868;4.180;2022-11-15T05:33:51;10.50;99.90
20670;DHT22;10494;50.868;4.180;2022-11-15T05:36:20;10.50;99.90
20670;DHT22;10494;50.868;4.180;2022-11-15T05:38:48;10.40;99.90
20670;DHT22;10494;50.868;4.180;2022-11-15T05:41:14;10.30;99.90
20670;DHT22;10494;50.868;4.180;2022-11-15T05:43:42;10.30;99.90
20670;DHT22;10494;50.868;4.180;2022-11-15T05:46:08;10.20;99.90
20670;DHT22;10494;50.868;4.180;2022-11-15T05:48:35;10.10;99.90
20670;DHT22;10494;50.868;4.180;2022-11-15T05:51:02;10.10;99.90
20670;DHT22;10494;50.868;4.180;2022-11-15T05:53:29;10.20;99.90
20670;DHT22;10494;50.868;4.180;2022-11-15T05:55:55;10.20;99.90
20670;DHT22;10494;50.868;4.180;2022-11-15T05:58:21;10.20;99.90
20670;DHT22;10494;50.868;4.180;2022-11-15T06:00:47;10.40;99.90
20670;DHT22;10494;50.868;4.180;2022-11-15T06:03:12;10.30;99.90
20670;DHT22;10494;50.868;4.180;2022-11-15T06:05:39;10.30;99.90
20670;DHT22;10494;50.868;4.180;2022-11-15T06:08:05;10.30;99.90
20670;DHT22;10494;50.868;4.180;2022-11-15T06:10:31;10.40;99.90
20670;DHT22;10494;50.868;4.180;2022-11-15T06:12:58;10.30;99.90
20670;DHT22;10494;50.868;4.180;2022-11-15T06:15:24;10.20;99.90
20670;DHT22;10494;50.868;4.180;2022-11-15T06:17:50;10.10;99.90
20670;DHT22;10494;50.868;4.180;2022-11-15T06:20:16;10.10;99.90
20670;DHT22;10494;50.868;4.180;2022-11-15T06:22:41;10.00;99.90
20670;DHT22;10494;50.868;4.180;2022-11-15T06:25:07;10.00;99.90
20670;DHT22;10494;50.868;4.180;2022-11-15T06:27:32;9.90;99.90
20670;DHT22;10494;50.868;4.180;2022-11-15T06:29:58;9.80;99.90
20670;DHT22;10494;50.868;4.180;2022-11-15T06:32:24;9.80;99.90
20670;DHT22;10494;50.868;4.180;2022-11-15T06:34:49;9.80;99.90
20670;DHT22;10494;50.868;4.180;2022-11-15T06:37:15;9.70;99.90
20670;DHT22;10494;50.868;4.180;2022-11-15T06:39:40;9.70;99.90
20670;DHT22;10494;50.868;4.180;2022-11-15T06:42:08;9.60;99.90
20670;DHT22;10494;50.868;4.180;2022-11-15T06:44:33;9.50;99.90
20670;DHT22;10494;50.868;4.180;2022-11-15T06:46:59;9.40;99.90
20670;DHT22;10494;50.868;4.180;2022-11-15T06:49:24;9.40;99.90
20670;DHT22;10494;50.868;4.180;2022-11-15T06:51:50;9.30;99.90
20670;DHT22;10494;50.868;4.180;2022-11-15T06:54:15;9.20;99.90
20670;DHT22;10494;50.868;4.180;2022-11-15T06:56:41;9.20;99.90
20670;DHT22;10494;50.868;4.180;2022-11-15T06:59:06;9.20;99.90
20670;DHT22;10494;50.868;4.180;2022-11-15T07:01:35;9.30;99.90
20670;DHT22;10494;50.868;4.180;2022-11-15T07:04:00;9.20;99.90
20670;DHT22;10494;50.868;4.180;2022-11-15T07:06:26;9.20;99.90
20670;DHT22;10494;50.868;4.180;2022-11-15T07:08:52;9.10;99.90
20670;DHT22;10494;50.868;4.180;2022-11-15T07:11:17;9.20;99.90
20670;DHT22;10494;50.868;4.180;2022-11-15T07:13:43;9.10;99.90
20670;DHT22;10494;50.868;4.180;2022-11-15T07:16:09;9.30;99.90
20670;DHT22;10494;50.868;4.180;2022-11-15T07:18:37;9.30;99.90
20670;DHT22;10494;50.868;4.180;2022-11-15T07:21:05;9.30;99.90
20670;DHT22;10494;50.868;4.180;2022-11-15T07:23:31;9.30;99.90
20670;DHT22;10494;50.868;4.180;2022-11-15T07:25:59;9.40;99.90
20670;DHT22;10494;50.868;4.180;2022-11-15T07:28:26;9.40;99.90
20670;DHT22;10494;50.868;4.180;2022-11-15T07:30:52;9.40;99.90
20670;DHT22;10494;50.868;4.180;2022-11-15T07:33:18;9.40;99.90
20670;DHT22;10494;50.868;4.180;2022-11-15T07:35:43;9.50;99.90
20670;DHT22;10494;50.868;4.180;2022-11-15T07:38:11;9.60;99.90
20670;DHT22;10494;50.868;4.180;2022-11-15T07:40:37;9.50;99.90
20670;DHT22;10494;50.868;4.180;2022-11-15T07:43:05;9.50;99.90
20670;DHT22;10494;50.868;4.180;2022-11-15T07:45:31;9.60;99.90
20670;DHT22;10494;50.868;4.180;2022-11-15T07:47:58;9.80;99.90
20670;DHT22;10494;50.868;4.180;2022-11-15T07:50:25;9.90;99.90
20670;DHT22;10494;50.868;4.180;2022-11-15T07:52:55;10.00;99.90
20670;DHT22;10494;50.868;4.180;2022-11-15T07:55:25;10.20;99.90
20670;DHT22;10494;50.868;4.180;2022-11-15T07:57:51;10.50;99.90
20670;DHT22;10494;50.868;4.180;2022-11-15T08:00:17;10.70;99.90
20670;DHT22;10494;50.868;4.180;2022-11-15T08:02:43;10.90;99.90
20670;DHT22;10494;50.868;4.180;2022-11-15T08:05:08;10.70;99.90
20670;DHT22;10494;50.868;4.180;2022-11-15T08:07:34;10.70;99.90
20670;DHT22;10494;50.868;4.180;2022-11-15T08:10:00;10.70;99.90
20670;DHT22;10494;50.868;4.180;2022-11-15T08:12:27;10.60;99.90
20670;DHT22;10494;50.868;4.180;2022-11-15T08:14:54;10.50;99.90
20670;DHT22;10494;50.868;4.180;2022-11-15T08:17:21;10.50;99.90
20670;DHT22;10494;50.868;4.180;2022-11-15T08:19:47;10.60;99.90
20670;DHT22;10494;50.868;4.180;2022-11-15T08:22:13;10.80;99.90
20670;DHT22;10494;50.868;4.180;2022-11-15T08:24:38;11.20;99.90
20670;DHT22;10494;50.868;4.180;2022-11-15T08:27:04;11.50;99.90
20670;DHT22;10494;50.868;4.180;2022-11-15T08:29:30;11.40;99.90
20670;DHT22;10494;50.868;4.180;2022-11-15T08:31:55;11.40;99.90
20670;DHT22;10494;50.868;4.180;2022-11-15T08:34:21;11.30;99.90
20670;DHT22;10494;50.868;4.180;2022-11-15T08:36:47;11.40;99.90
20670;DHT22;10494;50.868;4.180;2022-11-15T08:39:12;11.40;99.90
20670;DHT22;10494;50.868;4.180;2022-11-15T08:41:38;11.30;99.90
20670;DHT22;10494;50.868;4.180;2022-11-15T08:44:04;11.30;99.90
20670;DHT22;10494;50.868;4.180;2022-11-15T08:46:30;11.20;99.90
20670;DHT22;10494;50.868;4.180;2022-11-15T08:48:56;11.20;99.90
20670;DHT22;10494;50.868;4.180;2022-11-15T08:51:21;11.20;99.90
20670;DHT22;10494;50.868;4.180;2022-11-15T08:53:47;11.20;99.90
20670;DHT22;10494;50.868;4.180;2022-11-15T08:56:14;11.50;99.90
20670;DHT22;10494;50.868;4.180;2022-11-15T08:58:40;11.60;99.90
20670;DHT22;10494;50.868;4.180;2022-11-15T09:01:15;11.60;99.90
20670;DHT22;10494;50.868;4.180;2022-11-15T09:03:41;11.50;99.90
20670;DHT22;10494;50.868;4.180;2022-11-15T09:06:06;11.40;99.90
20670;DHT22;10494;50.868;4.180;2022-11-15T09:08:32;11.10;99.90
20670;DHT22;10494;50.868;4.180;2022-11-15T09:10:58;11.00;99.90
20670;DHT22;10494;50.868;4.180;2022-11-15T09:13:23;11.30;99.90
20670;DHT22;10494;50.868;4.180;2022-11-15T09:15:49;11.70;99.90
20670;DHT22;10494;50.868;4.180;2022-11-15T09:18:14;12.10;99.90
20670;DHT22;10494;50.868;4.180;2022-11-15T09:20:40;12.30;99.90
20670;DHT22;10494;50.868;4.180;2022-11-15T09:23:06;12.30;99.90
20670;DHT22;10494;50.868;4.180;2022-11-15T09:25:32;12.40;99.90
20670;DHT22;10494;50.868;4.180;2022-11-15T09:27:57;12.60;99.90
20670;DHT22;10494;50.868;4.180;2022-11-15T09:30:24;12.80;99.90
20670;DHT22;10494;50.868;4.180;2022-11-15T09:32:50;13.10;99.90
20670;DHT22;10494;50.868;4.180;2022-11-15T09:35:16;13.10;99.90
20670;DHT22;10494;50.868;4.180;2022-11-15T09:37:42;13.20;99.90
20670;DHT22;10494;50.868;4.180;2022-11-15T09:40:13;13.20;99.90
20670;DHT22;10494;50.868;4.180;2022-11-15T09:42:48;13.20;99.90
20670;DHT22;10494;50.868;4.180;2022-11-15T09:45:20;13.20;99.90
20670;DHT22;10494;50.868;4.180;2022-11-15T09:50:57;12.90;99.90
20670;DHT22;10494;50.868;4.180;2022-11-15T09:53:31;12.70;99.90
20670;DHT22;10494;50.868;4.180;2022-11-15T09:56:03;12.70;99.90
20670;DHT22;10494;50.868;4.180;2022-11-15T10:00:55;12.60;99.90
20670;DHT22;10494;50.868;4.180;2022-11-15T10:03:27;12.50;99.90
20670;DHT22;10494;50.868;4.180;2022-11-15T10:05:56;12.60;99.90
20670;DHT22;10494;50.868;4.180;2022-11-15T10:11:36;12.90;99.90
20670;DHT22;10494;50.868;4.180;2022-11-15T10:14:18;13.20;99.90
20670;DHT22;10494;50.868;4.180;2022-11-15T10:27:34;13.10;99.90
20670;DHT22;10494;50.868;4.180;2022-11-15T10:30:00;12.90;99.90
20670;DHT22;10494;50.868;4.180;2022-11-15T10:32:26;12.80;99.90
20670;DHT22;10494;50.868;4.180;2022-11-15T10:34:52;12.60;99.90
20670;DHT22;10494;50.868;4.180;2022-11-15T10:37:31;12.60;99.90
20670;DHT22;10494;50.868;4.180;2022-11-15T10:40:26;12.60;99.90
20670;DHT22;10494;50.868;4.180;2022-11-15T10:43:17;12.70;99.90
20670;DHT22;10494;50.868;4.180;2022-11-15T10:45:44;12.60;99.90
20670;DHT22;10494;50.868;4.180;2022-11-15T10:50:41;12.70;99.90
20670;DHT22;10494;50.868;4.180;2022-11-15T10:55:57;12.80;99.90
20670;DHT22;10494;50.868;4.180;2022-11-15T10:58:35;12.80;99.90
20670;DHT22;10494;50.868;4.180;2022-11-15T11:01:24;12.80;99.90
20670;DHT22;10494;50.868;4.180;2022-11-15T11:04:05;12.70;99.90
20670;DHT22;10494;50.868;4.180;2022-11-15T11:06:56;12.70;99.90
20670;DHT22;10494;50.868;4.180;2022-11-15T11:09:23;12.80;99.90
20670;DHT22;10494;50.868;4.180;2022-11-15T11:11:50;12.80;99.90
20670;DHT22;10494;50.868;4.180;2022-11-15T11:24:48;13.10;99.90
20670;DHT22;10494;50.868;4.180;2022-11-15T11:27:43;13.20;99.90
20670;DHT22;10494;50.868;4.180;2022-11-15T11:30:21;13.30;99.90
20670;DHT22;10494;50.868;4.180;2022-11-15T11:35:30;13.30;99.90
20670;DHT22;10494;50.868;4.180;2022-11-15T11:46:56;12.90;99.90
20670;DHT22;10494;50.868;4.180;2022-11-15T11:49:47;12.90;99.90
20670;DHT22;10494;50.868;4.180;2022-11-15T11:52:34;12.90;99.90
20670;DHT22;10494;50.868;4.180;2022-11-15T11:55:26;12.90;99.90
20670;DHT22;10494;50.868;4.180;2022-11-15T11:58:22;13.00;99.90
20670;DHT22;10494;50.868;4.180;2022-11-15T12:00:55;12.90;99.90
20670;DHT22;10494;50.868;4.180;2022-11-15T12:03:28;13.00;99.90
20670;DHT22;10494;50.868;4.180;2022-11-15T12:06:02;13.10;99.90
20670;DHT22;10494;50.868;4.180;2022-11-15T12:08:52;13.10;99.90
20670;DHT22;10494;50.868;4.180;2022-11-15T12:14:02;13.10;99.90
20670;DHT22;10494;50.868;4.180;2022-11-15T12:16:31;13.20;99.90
20670;DHT22;10494;50.868;4.180;2022-11-15T12:19:01;13.20;99.90
20670;DHT22;10494;50.868;4.180;2022-11-15T12:21:46;13.10;99.90
20670;DHT22;10494;50.868;4.180;2022-11-15T12:24:20;13.10;99.90
20670;DHT22;10494;50.868;4.180;2022-11-15T12:27:38;13.10;99.90
20670;DHT22;10494;50.868;4.180;2022-11-15T12:29:42;13.10;99.90
20670;DHT22;10494;50.868;4.180;2022-11-15T12:32:27;13.10;99.90
20670;DHT22;10494;50.868;4.180;2022-11-15T12:34:55;13.10;99.90
20670;DHT22;10494;50.868;4.180;2022-11-15T12:37:46;13.20;99.90
20670;DHT22;10494;50.868;4.180;2022-11-15T12:40:19;13.20;99.90
20670;DHT22;10494;50.868;4.180;2022-11-15T12:45:50;13.20;99.90
20670;DHT22;10494;50.868;4.180;2022-11-15T12:51:08;13.30;99.90
20670;DHT22;10494;50.868;4.180;2022-11-15T12:53:34;13.40;99.90
20670;DHT22;10494;50.868;4.180;2022-11-15T12:56:26;13.40;99.90
20670;DHT22;10494;50.868;4.180;2022-11-15T12:59:00;13.30;99.90
20670;DHT22;10494;50.868;4.180;2022-11-15T13:12:11;13.40;99.90
20670;DHT22;10494;50.868;4.180;2022-11-15T13:15:00;13.40;99.90
20670;DHT22;10494;50.868;4.180;2022-11-15T13:17:33;13.40;99.90
20670;DHT22;10494;50.868;4.180;2022-11-15T13:22:40;13.40;99.90
20670;DHT22;10494;50.868;4.180;2022-11-15T13:33:20;13.40;99.90
20670;DHT22;10494;50.868;4.180;2022-11-15T13:35:48;13.50;99.90
20670;DHT22;10494;50.868;4.180;2022-11-15T13:38:25;13.40;99.90
20670;DHT22;10494;50.868;4.180;2022-11-15T13:41:23;13.40;99.90
20670;DHT22;10494;50.868;4.180;2022-11-15T13:43:51;13.40;99.90
20670;DHT22;10494;50.868;4.180;2022-11-15T13:46:31;13.50;99.90
20670;DHT22;10494;50.868;4.180;2022-11-15T13:49:08;13.40;99.90
20670;DHT22;10494;50.868;4.180;2022-11-15T13:51:53;13.40;99.90
20670;DHT22;10494;50.868;4.180;2022-11-15T13:54:30;13.40;99.90
20670;DHT22;10494;50.868;4.180;2022-11-15T13:56:58;13.30;99.90
20670;DHT22;10494;50.868;4.180;2022-11-15T13:59:31;13.30;99.90
20670;DHT22;10494;50.868;4.180;2022-11-15T14:02:12;13.30;99.90
20670;DHT22;10494;50.868;4.180;2022-11-15T14:04:46;13.30;99.90
20670;DHT22;10494;50.868;4.180;2022-11-15T14:07:18;13.30;99.90
20670;DHT22;10494;50.868;4.180;2022-11-15T14:09:44;13.30;99.90
20670;DHT22;10494;50.868;4.180;2022-11-15T14:12:28;13.30;99.90
20670;DHT22;10494;50.868;4.180;2022-11-15T14:14:54;13.30;99.90
20670;DHT22;10494;50.868;4.180;2022-11-15T14:17:40;13.30;99.90
20670;DHT22;10494;50.868;4.180;2022-11-15T14:22:58;13.00;99.90
20670;DHT22;10494;50.868;4.180;2022-11-15T14:25:37;13.00;99.90
20670;DHT22;10494;50.868;4.180;2022-11-15T14:30:51;12.90;99.90
20670;DHT22;10494;50.868;4.180;2022-11-15T14:33:37;12.90;99.90
20670;DHT22;10494;50.868;4.180;2022-11-15T14:36:19;12.90;99.90
20670;DHT22;10494;50.868;4.180;2022-11-15T14:38:45;12.70;99.90
20670;DHT22;10494;50.868;4.180;2022-11-15T14:41:23;12.60;99.90
20670;DHT22;10494;50.868;4.180;2022-11-15T14:43:50;12.50;99.90
20670;DHT22;10494;50.868;4.180;2022-11-15T14:46:16;12.50;99.90
20670;DHT22;10494;50.868;4.180;2022-11-15T14:48:41;12.40;99.90
20670;DHT22;10494;50.868;4.180;2022-11-15T14:51:15;12.30;99.90
20670;DHT22;10494;50.868;4.180;2022-11-15T14:53:41;12.30;99.90
20670;DHT22;10494;50.868;4.180;2022-11-15T14:56:08;12.20;99.90
20670;DHT22;10494;50.868;4.180;2022-11-15T14:58:33;12.30;99.90
20670;DHT22;10494;50.868;4.180;2022-11-15T15:00:59;12.20;99.90
20670;DHT22;10494;50.868;4.180;2022-11-15T15:03:25;12.20;99.90
20670;DHT22;10494;50.868;4.180;2022-11-15T15:05:50;12.20;99.90
20670;DHT22;10494;50.868;4.180;2022-11-15T15:08:16;12.10;99.90
20670;DHT22;10494;50.868;4.180;2022-11-15T15:10:44;12.10;99.90
20670;DHT22;10494;50.868;4.180;2022-11-15T15:13:22;12.10;99.90
20670;DHT22;10494;50.868;4.180;2022-11-15T15:15:48;12.10;99.90
20670;DHT22;10494;50.868;4.180;2022-11-15T15:18:15;12.10;99.90
20670;DHT22;10494;50.868;4.180;2022-11-15T15:20:42;12.10;99.90
20670;DHT22;10494;50.868;4.180;2022-11-15T15:23:18;12.10;99.90
20670;DHT22;10494;50.868;4.180;2022-11-15T15:25:45;12.00;99.90
20670;DHT22;10494;50.868;4.180;2022-11-15T15:28:12;12.10;99.90
20670;DHT22;10494;50.868;4.180;2022-11-15T15:30:37;12.10;99.90
20670;DHT22;10494;50.868;4.180;2022-11-15T15:33:03;12.00;99.90
20670;DHT22;10494;50.868;4.180;2022-11-15T15:35:30;12.00;99.90
20670;DHT22;10494;50.868;4.180;2022-11-15T15:37:57;12.00;99.90
20670;DHT22;10494;50.868;4.180;2022-11-15T15:40:23;12.00;99.90
20670;DHT22;10494;50.868;4.180;2022-11-15T15:42:50;12.00;99.90
20670;DHT22;10494;50.868;4.180;2022-11-15T15:45:17;12.10;99.90
20670;DHT22;10494;50.868;4.180;2022-11-15T15:47:43;12.10;99.90
20670;DHT22;10494;50.868;4.180;2022-11-15T15:50:25;12.00;99.90
20670;DHT22;10494;50.868;4.180;2022-11-15T15:52:53;12.00;99.90
20670;DHT22;10494;50.868;4.180;2022-11-15T15:55:20;12.00;99.90
20670;DHT22;10494;50.868;4.180;2022-11-15T15:57:46;11.90;99.90
20670;DHT22;10494;50.868;4.180;2022-11-15T16:00:12;11.90;99.90
20670;DHT22;10494;50.868;4.180;2022-11-15T16:02:39;11.90;99.90
20670;DHT22;10494;50.868;4.180;2022-11-15T16:05:05;12.00;99.90
20670;DHT22;10494;50.868;4.180;2022-11-15T16:07:31;12.00;99.90
20670;DHT22;10494;50.868;4.180;2022-11-15T16:09:57;12.00;99.90
20670;DHT22;10494;50.868;4.180;2022-11-15T16:12:29;12.00;99.90
20670;DHT22;10494;50.868;4.180;2022-11-15T16:14:55;12.00;99.90
20670;DHT22;10494;50.868;4.180;2022-11-15T16:17:23;12.00;99.90
20670;DHT22;10494;50.868;4.180;2022-11-15T16:19:49;12.00;99.90
20670;DHT22;10494;50.868;4.180;2022-11-15T16:22:15;12.00;99.90
20670;DHT22;10494;50.868;4.180;2022-11-15T16:24:40;12.00;99.90
20670;DHT22;10494;50.868;4.180;2022-11-15T16:27:17;12.00;99.90
20670;DHT22;10494;50.868;4.180;2022-11-15T16:29:43;12.00;99.90
20670;DHT22;10494;50.868;4.180;2022-11-15T16:32:09;12.00;99.90
20670;DHT22;10494;50.868;4.180;2022-11-15T16:34:35;12.00;99.90
20670;DHT22;10494;50.868;4.180;2022-11-15T16:37:00;12.10;99.90
20670;DHT22;10494;50.868;4.180;2022-11-15T16:39:26;12.10;99.90
20670;DHT22;10494;50.868;4.180;2022-11-15T16:41:57;12.10;99.90
20670;DHT22;10494;50.868;4.180;2022-11-15T16:44:22;12.10;99.90
20670;DHT22;10494;50.868;4.180;2022-11-15T16:46:49;12.10;99.90
20670;DHT22;10494;50.868;4.180;2022-11-15T16:49:17;12.10;99.90
20670;DHT22;10494;50.868;4.180;2022-11-15T16:51:47;12.10;99.90
20670;DHT22;10494;50.868;4.180;2022-11-15T16:54:13;12.20;99.90
20670;DHT22;10494;50.868;4.180;2022-11-15T16:56:40;12.20;99.90
20670;DHT22;10494;50.868;4.180;2022-11-15T16:59:06;12.10;99.90
20670;DHT22;10494;50.868;4.180;2022-11-15T17:01:36;12.10;99.90
20670;DHT22;10494;50.868;4.180;2022-11-15T17:04:13;12.20;99.90
20670;DHT22;10494;50.868;4.180;2022-11-15T17:06:42;12.20;99.90
20670;DHT22;10494;50.868;4.180;2022-11-15T17:09:19;12.20;99.90
20670;DHT22;10494;50.868;4.180;2022-11-15T17:11:45;12.20;99.90
20670;DHT22;10494;50.868;4.180;2022-11-15T17:14:11;12.20;99.90
20670;DHT22;10494;50.868;4.180;2022-11-15T17:16:37;12.20;99.90
20670;DHT22;10494;50.868;4.180;2022-11-15T17:19:16;12.20;99.90
20670;DHT22;10494;50.868;4.180;2022-11-15T17:21:42;12.30;99.90
20670;DHT22;10494;50.868;4.180;2022-11-15T17:24:08;12.20;99.90
20670;DHT22;10494;50.868;4.180;2022-11-15T17:26:34;12.30;99.90
20670;DHT22;10494;50.868;4.180;2022-11-15T17:29:00;12.30;99.90
20670;DHT22;10494;50.868;4.180;2022-11-15T17:31:26;12.20;99.90
20670;DHT22;10494;50.868;4.180;2022-11-15T17:33:52;12.20;99.90